Gure Amuitz — EASO — position and weather

sailwx.info

Track history (hours):
 
Tides and Currents Weather Stations Pressure Air Temp Water Temp Dewpoint Dewpoint Depression Visibility Wind Speed Wind Dir Waves Ship Positions

Gure Amuitz

Last reported at 2014-Sep-15 19:17 UTC. Time now 2014-Sep-19 09:55 UTC.
Position N 44°33' W 005°52'.

Length 28 m.

Type: Fishing. MMSI: 224010590.

Date/timePositionNaut miles runAvg speedWind from/ knotsBaromVisibWave heightAir tempDewpointWater temp
2014-Sep-15 19:17N 44°33' W 005°52'6 8.4
2014-Sep-15 18:34N 44°35' W 005°44'169 8.7
2014-Sep-14 23:04N 45°34' W 002°00'36 1.3
2014-Sep-13 20:28N 45°01' W 001°42'9 9.5
2014-Sep-13 19:33N 44°52' W 001°42'9 9.5
2014-Sep-13 18:33N 44°43' W 001°42'9 9.3
2014-Sep-13 17:33N 44°33' W 001°42'9 9.4
2014-Sep-13 16:33N 44°24' W 001°43'10 9.6
2014-Sep-13 15:33N 44°14' W 001°44'10 9.8
2014-Sep-13 14:33N 44°05' W 001°45'9 9.4
2014-Sep-13 13:33N 43°55' W 001°45'12 9.8
2014-Sep-13 12:22N 43°44' W 001°45'8 9.6
2014-Sep-13 11:32N 43°36' W 001°47'11 9.8
2014-Sep-13 10:28N 43°25' W 001°47'2 2.2
2014-Sep-13 09:34N 43°23' W 001°48'0 0.0
2014-Sep-12 08:33N 43°23' W 001°48'0 0.0
2014-Sep-12 07:33N 43°23' W 001°48'0 0.1
2014-Sep-12 06:33N 43°23' W 001°47'  
Track history (hours):
 
Tides and Currents Weather Stations Pressure Air Temp Water Temp Dewpoint Dewpoint Depression Visibility Wind Speed Wind Dir Waves Ship Positions

Gure Amuitz

Last reported at 2014-Sep-15 19:17 UTC. Time now 2014-Sep-19 09:55 UTC.
Position N 44°33' W 005°52'.

Length 28 m.

Type: Fishing. MMSI: 224010590.

Date/timePositionNaut miles runAvg speedWind from/ knotsBaromVisibWave heightAir tempDewpointWater temp
2014-Sep-15 19:17N 44°33' W 005°52'6 8.4
2014-Sep-15 18:34N 44°35' W 005°44'169 8.7
2014-Sep-14 23:04N 45°34' W 002°00'36 1.3
2014-Sep-13 20:28N 45°01' W 001°42'9 9.5
2014-Sep-13 19:33N 44°52' W 001°42'9 9.5
2014-Sep-13 18:33N 44°43' W 001°42'9 9.3
2014-Sep-13 17:33N 44°33' W 001°42'9 9.4
2014-Sep-13 16:33N 44°24' W 001°43'10 9.6
2014-Sep-13 15:33N 44°14' W 001°44'10 9.8
2014-Sep-13 14:33N 44°05' W 001°45'9 9.4
2014-Sep-13 13:33N 43°55' W 001°45'12 9.8
2014-Sep-13 12:22N 43°44' W 001°45'8 9.6
2014-Sep-13 11:32N 43°36' W 001°47'11 9.8
2014-Sep-13 10:28N 43°25' W 001°47'2 2.2
2014-Sep-13 09:34N 43°23' W 001°48'0 0.0
2014-Sep-12 08:33N 43°23' W 001°48'0 0.0
2014-Sep-12 07:33N 43°23' W 001°48'0 0.1
2014-Sep-12 06:33N 43°23' W 001°47'  

Dump ship's entire track history